sensor_id;sensor_type;location;lat;lon;timestamp;P1;durP1;ratioP1;P2;durP2;ratioP2
66118;SDS011;52912;48.564;9.302;2023-04-25T00:01:21;4.60;;;2.50;;
66118;SDS011;52912;48.564;9.302;2023-04-25T00:03:46;5.18;;;2.85;;
66118;SDS011;52912;48.564;9.302;2023-04-25T00:06:12;9.20;;;2.80;;
66118;SDS011;52912;48.564;9.302;2023-04-25T00:08:38;6.50;;;2.60;;
66118;SDS011;52912;48.564;9.302;2023-04-25T00:11:04;6.70;;;2.63;;
66118;SDS011;52912;48.564;9.302;2023-04-25T00:13:29;7.07;;;3.00;;
66118;SDS011;52912;48.564;9.302;2023-04-25T00:15:56;3.65;;;2.50;;
66118;SDS011;52912;48.564;9.302;2023-04-25T00:18:22;5.90;;;2.67;;
66118;SDS011;52912;48.564;9.302;2023-04-25T00:20:47;5.93;;;2.50;;
66118;SDS011;52912;48.564;9.302;2023-04-25T00:23:13;5.10;;;2.85;;
66118;SDS011;52912;48.564;9.302;2023-04-25T00:25:39;4.70;;;2.45;;
66118;SDS011;52912;48.564;9.302;2023-04-25T00:28:04;4.00;;;2.58;;
66118;SDS011;52912;48.564;9.302;2023-04-25T00:30:29;5.47;;;2.60;;
66118;SDS011;52912;48.564;9.302;2023-04-25T00:32:56;8.57;;;2.80;;
66118;SDS011;52912;48.564;9.302;2023-04-25T00:35:22;5.68;;;2.60;;
66118;SDS011;52912;48.564;9.302;2023-04-25T00:37:47;3.92;;;2.58;;
66118;SDS011;52912;48.564;9.302;2023-04-25T00:40:12;7.38;;;3.00;;
66118;SDS011;52912;48.564;9.302;2023-04-25T00:42:38;4.68;;;2.33;;
66118;SDS011;52912;48.564;9.302;2023-04-25T00:45:05;7.18;;;2.45;;
66118;SDS011;52912;48.564;9.302;2023-04-25T00:47:32;5.90;;;2.60;;
66118;SDS011;52912;48.564;9.302;2023-04-25T00:49:59;4.15;;;2.63;;
66118;SDS011;52912;48.564;9.302;2023-04-25T00:52:24;6.65;;;3.00;;
66118;SDS011;52912;48.564;9.302;2023-04-25T00:54:50;8.02;;;2.85;;
66118;SDS011;52912;48.564;9.302;2023-04-25T00:57:15;4.85;;;2.60;;
66118;SDS011;52912;48.564;9.302;2023-04-25T00:59:41;7.85;;;2.70;;
66118;SDS011;52912;48.564;9.302;2023-04-25T01:02:10;5.30;;;2.55;;
66118;SDS011;52912;48.564;9.302;2023-04-25T01:04:35;4.15;;;2.47;;
66118;SDS011;52912;48.564;9.302;2023-04-25T01:07:02;4.97;;;2.50;;
66118;SDS011;52912;48.564;9.302;2023-04-25T01:09:28;4.75;;;2.97;;
66118;SDS011;52912;48.564;9.302;2023-04-25T01:11:55;7.95;;;2.72;;
66118;SDS011;52912;48.564;9.302;2023-04-25T01:14:20;7.22;;;2.70;;
66118;SDS011;52912;48.564;9.302;2023-04-25T01:16:46;5.70;;;2.72;;
66118;SDS011;52912;48.564;9.302;2023-04-25T01:19:11;5.82;;;2.95;;
66118;SDS011;52912;48.564;9.302;2023-04-25T01:21:43;5.47;;;2.85;;
66118;SDS011;52912;48.564;9.302;2023-04-25T01:24:09;5.28;;;2.70;;
66118;SDS011;52912;48.564;9.302;2023-04-25T01:26:35;4.15;;;2.70;;
66118;SDS011;52912;48.564;9.302;2023-04-25T01:29:01;5.10;;;2.63;;
66118;SDS011;52912;48.564;9.302;2023-04-25T01:31:27;6.78;;;2.80;;
66118;SDS011;52912;48.564;9.302;2023-04-25T01:33:53;8.15;;;2.70;;
66118;SDS011;52912;48.564;9.302;2023-04-25T01:36:18;4.43;;;2.40;;
66118;SDS011;52912;48.564;9.302;2023-04-25T01:38:45;7.53;;;2.80;;
66118;SDS011;52912;48.564;9.302;2023-04-25T01:41:10;7.30;;;2.70;;
66118;SDS011;52912;48.564;9.302;2023-04-25T01:43:36;6.10;;;2.60;;
66118;SDS011;52912;48.564;9.302;2023-04-25T01:46:02;5.40;;;2.53;;
66118;SDS011;52912;48.564;9.302;2023-04-25T01:48:27;5.40;;;2.60;;
66118;SDS011;52912;48.564;9.302;2023-04-25T01:50:53;7.50;;;2.80;;
66118;SDS011;52912;48.564;9.302;2023-04-25T01:53:18;6.05;;;2.72;;
66118;SDS011;52912;48.564;9.302;2023-04-25T01:55:45;7.65;;;2.80;;
66118;SDS011;52912;48.564;9.302;2023-04-25T01:58:10;5.00;;;2.60;;
66118;SDS011;52912;48.564;9.302;2023-04-25T02:00:36;6.63;;;2.70;;
66118;SDS011;52912;48.564;9.302;2023-04-25T02:03:02;5.75;;;2.60;;
66118;SDS011;52912;48.564;9.302;2023-04-25T02:05:27;4.85;;;2.58;;
66118;SDS011;52912;48.564;9.302;2023-04-25T02:07:52;4.93;;;2.60;;
66118;SDS011;52912;48.564;9.302;2023-04-25T02:10:18;4.57;;;2.65;;
66118;SDS011;52912;48.564;9.302;2023-04-25T02:12:45;6.05;;;2.72;;
66118;SDS011;52912;48.564;9.302;2023-04-25T02:15:10;5.95;;;2.83;;
66118;SDS011;52912;48.564;9.302;2023-04-25T02:17:35;5.72;;;2.65;;
66118;SDS011;52912;48.564;9.302;2023-04-25T02:20:01;6.30;;;3.22;;
66118;SDS011;52912;48.564;9.302;2023-04-25T02:22:26;7.82;;;3.20;;
66118;SDS011;52912;48.564;9.302;2023-04-25T02:24:52;5.13;;;3.00;;
66118;SDS011;52912;48.564;9.302;2023-04-25T02:27:18;6.22;;;2.92;;
66118;SDS011;52912;48.564;9.302;2023-04-25T02:29:45;4.53;;;3.03;;
66118;SDS011;52912;48.564;9.302;2023-04-25T02:32:10;5.53;;;2.65;;
66118;SDS011;52912;48.564;9.302;2023-04-25T02:34:36;5.90;;;2.90;;
66118;SDS011;52912;48.564;9.302;2023-04-25T02:37:01;6.00;;;3.00;;
66118;SDS011;52912;48.564;9.302;2023-04-25T02:39:27;5.05;;;2.90;;
66118;SDS011;52912;48.564;9.302;2023-04-25T02:41:52;12.43;;;3.22;;
66118;SDS011;52912;48.564;9.302;2023-04-25T02:44:18;7.97;;;3.20;;
66118;SDS011;52912;48.564;9.302;2023-04-25T02:46:45;7.40;;;3.30;;
66118;SDS011;52912;48.564;9.302;2023-04-25T02:49:10;6.10;;;2.88;;
66118;SDS011;52912;48.564;9.302;2023-04-25T02:51:35;5.45;;;2.80;;
66118;SDS011;52912;48.564;9.302;2023-04-25T02:54:01;5.15;;;2.90;;
66118;SDS011;52912;48.564;9.302;2023-04-25T02:56:26;6.90;;;2.90;;
66118;SDS011;52912;48.564;9.302;2023-04-25T02:58:52;5.65;;;2.85;;
66118;SDS011;52912;48.564;9.302;2023-04-25T03:01:17;7.32;;;3.03;;
66118;SDS011;52912;48.564;9.302;2023-04-25T03:03:44;5.25;;;2.80;;
66118;SDS011;52912;48.564;9.302;2023-04-25T03:06:10;11.63;;;2.83;;
66118;SDS011;52912;48.564;9.302;2023-04-25T03:08:35;7.18;;;2.90;;
66118;SDS011;52912;48.564;9.302;2023-04-25T03:11:00;5.47;;;2.72;;
66118;SDS011;52912;48.564;9.302;2023-04-25T03:13:26;3.75;;;2.42;;
66118;SDS011;52912;48.564;9.302;2023-04-25T03:15:51;7.70;;;2.65;;
66118;SDS011;52912;48.564;9.302;2023-04-25T03:18:17;6.38;;;2.63;;
66118;SDS011;52912;48.564;9.302;2023-04-25T03:20:44;6.68;;;2.90;;
66118;SDS011;52912;48.564;9.302;2023-04-25T03:23:09;5.60;;;2.47;;
66118;SDS011;52912;48.564;9.302;2023-04-25T03:25:34;4.30;;;2.65;;
66118;SDS011;52912;48.564;9.302;2023-04-25T03:28:00;6.13;;;2.70;;
66118;SDS011;52912;48.564;9.302;2023-04-25T03:30:25;4.75;;;2.60;;
66118;SDS011;52912;48.564;9.302;2023-04-25T03:32:51;5.05;;;2.83;;
66118;SDS011;52912;48.564;9.302;2023-04-25T03:35:16;4.38;;;2.55;;
66118;SDS011;52912;48.564;9.302;2023-04-25T03:37:43;6.40;;;2.58;;
66118;SDS011;52912;48.564;9.302;2023-04-25T03:40:09;5.38;;;2.70;;
66118;SDS011;52912;48.564;9.302;2023-04-25T03:42:35;4.15;;;2.60;;
66118;SDS011;52912;48.564;9.302;2023-04-25T03:45:00;5.57;;;2.85;;
66118;SDS011;52912;48.564;9.302;2023-04-25T03:47:25;7.82;;;2.90;;
66118;SDS011;52912;48.564;9.302;2023-04-25T03:49:51;6.25;;;2.60;;
66118;SDS011;52912;48.564;9.302;2023-04-25T03:52:16;4.55;;;2.83;;
66118;SDS011;52912;48.564;9.302;2023-04-25T03:54:43;8.07;;;2.72;;
66118;SDS011;52912;48.564;9.302;2023-04-25T03:57:09;4.75;;;2.72;;
66118;SDS011;52912;48.564;9.302;2023-04-25T03:59:34;5.07;;;2.53;;
66118;SDS011;52912;48.564;9.302;2023-04-25T04:01:59;3.83;;;2.58;;
66118;SDS011;52912;48.564;9.302;2023-04-25T04:04:25;8.50;;;2.67;;
66118;SDS011;52912;48.564;9.302;2023-04-25T04:06:50;4.50;;;2.55;;
66118;SDS011;52912;48.564;9.302;2023-04-25T04:09:16;10.02;;;2.85;;
66118;SDS011;52912;48.564;9.302;2023-04-25T04:11:43;5.32;;;2.42;;
66118;SDS011;52912;48.564;9.302;2023-04-25T04:14:08;5.75;;;2.47;;
66118;SDS011;52912;48.564;9.302;2023-04-25T04:16:34;6.70;;;2.60;;
66118;SDS011;52912;48.564;9.302;2023-04-25T04:18:59;6.07;;;2.50;;
66118;SDS011;52912;48.564;9.302;2023-04-25T04:21:25;7.00;;;2.70;;
66118;SDS011;52912;48.564;9.302;2023-04-25T04:23:50;5.55;;;2.80;;
66118;SDS011;52912;48.564;9.302;2023-04-25T04:26:16;7.65;;;3.50;;
66118;SDS011;52912;48.564;9.302;2023-04-25T04:28:43;5.75;;;3.00;;
66118;SDS011;52912;48.564;9.302;2023-04-25T04:31:08;4.93;;;2.97;;
66118;SDS011;52912;48.564;9.302;2023-04-25T04:33:34;6.07;;;2.60;;
66118;SDS011;52912;48.564;9.302;2023-04-25T04:35:59;5.32;;;2.47;;
66118;SDS011;52912;48.564;9.302;2023-04-25T04:38:25;7.53;;;2.80;;
66118;SDS011;52912;48.564;9.302;2023-04-25T04:40:50;6.50;;;3.03;;
66118;SDS011;52912;48.564;9.302;2023-04-25T04:43:15;5.22;;;2.50;;
66118;SDS011;52912;48.564;9.302;2023-04-25T04:45:42;5.10;;;2.40;;
66118;SDS011;52912;48.564;9.302;2023-04-25T04:48:08;6.75;;;3.20;;
66118;SDS011;52912;48.564;9.302;2023-04-25T04:50:33;5.72;;;3.13;;
66118;SDS011;52912;48.564;9.302;2023-04-25T04:52:59;5.57;;;2.53;;
66118;SDS011;52912;48.564;9.302;2023-04-25T04:55:24;4.72;;;2.55;;
66118;SDS011;52912;48.564;9.302;2023-04-25T04:57:50;4.90;;;2.55;;
66118;SDS011;52912;48.564;9.302;2023-04-25T05:00:15;6.95;;;2.40;;
66118;SDS011;52912;48.564;9.302;2023-04-25T05:02:42;6.18;;;2.92;;
66118;SDS011;52912;48.564;9.302;2023-04-25T05:05:08;6.90;;;2.85;;
66118;SDS011;52912;48.564;9.302;2023-04-25T05:07:33;7.43;;;2.70;;
66118;SDS011;52912;48.564;9.302;2023-04-25T05:09:59;6.93;;;2.88;;
66118;SDS011;52912;48.564;9.302;2023-04-25T05:12:24;7.18;;;3.08;;
66118;SDS011;52912;48.564;9.302;2023-04-25T05:14:50;7.55;;;2.90;;
66118;SDS011;52912;48.564;9.302;2023-04-25T05:17:15;10.50;;;2.88;;
66118;SDS011;52912;48.564;9.302;2023-04-25T05:19:42;5.95;;;2.80;;
66118;SDS011;52912;48.564;9.302;2023-04-25T05:22:07;7.25;;;3.20;;
66118;SDS011;52912;48.564;9.302;2023-04-25T05:24:33;6.35;;;3.00;;
66118;SDS011;52912;48.564;9.302;2023-04-25T05:26:58;9.40;;;2.88;;
66118;SDS011;52912;48.564;9.302;2023-04-25T05:29:24;5.93;;;2.90;;
66118;SDS011;52912;48.564;9.302;2023-04-25T05:31:49;7.38;;;2.90;;
66118;SDS011;52912;48.564;9.302;2023-04-25T05:34:15;6.30;;;3.28;;
66118;SDS011;52912;48.564;9.302;2023-04-25T05:36:41;3.90;;;2.47;;
66118;SDS011;52912;48.564;9.302;2023-04-25T05:39:07;5.90;;;3.03;;
66118;SDS011;52912;48.564;9.302;2023-04-25T05:41:32;5.57;;;2.65;;
66118;SDS011;52912;48.564;9.302;2023-04-25T05:43:58;6.40;;;2.75;;
66118;SDS011;52912;48.564;9.302;2023-04-25T05:46:23;5.45;;;2.50;;
66118;SDS011;52912;48.564;9.302;2023-04-25T05:48:49;7.50;;;2.90;;
66118;SDS011;52912;48.564;9.302;2023-04-25T05:51:14;8.60;;;2.67;;
66118;SDS011;52912;48.564;9.302;2023-04-25T05:53:41;6.68;;;3.10;;
66118;SDS011;52912;48.564;9.302;2023-04-25T05:56:06;10.30;;;3.00;;
66118;SDS011;52912;48.564;9.302;2023-04-25T05:58:32;8.18;;;2.88;;
66118;SDS011;52912;48.564;9.302;2023-04-25T06:00:58;8.52;;;2.95;;
66118;SDS011;52912;48.564;9.302;2023-04-25T06:03:23;6.22;;;3.08;;
66118;SDS011;52912;48.564;9.302;2023-04-25T06:05:49;7.20;;;2.90;;
66118;SDS011;52912;48.564;9.302;2023-04-25T06:08:14;5.25;;;2.97;;
66118;SDS011;52912;48.564;9.302;2023-04-25T06:10:41;4.05;;;2.60;;
66118;SDS011;52912;48.564;9.302;2023-04-25T06:13:06;7.07;;;3.13;;
66118;SDS011;52912;48.564;9.302;2023-04-25T06:15:32;7.13;;;2.70;;
66118;SDS011;52912;48.564;9.302;2023-04-25T06:17:58;5.22;;;2.65;;
66118;SDS011;52912;48.564;9.302;2023-04-25T06:20:23;6.65;;;3.05;;
66118;SDS011;52912;48.564;9.302;2023-04-25T06:22:49;5.43;;;2.90;;
66118;SDS011;52912;48.564;9.302;2023-04-25T06:25:14;6.40;;;2.78;;
66118;SDS011;52912;48.564;9.302;2023-04-25T06:27:41;5.13;;;2.70;;
66118;SDS011;52912;48.564;9.302;2023-04-25T06:30:07;10.35;;;3.10;;
66118;SDS011;52912;48.564;9.302;2023-04-25T06:32:33;4.55;;;2.30;;
66118;SDS011;52912;48.564;9.302;2023-04-25T06:34:58;5.70;;;2.83;;
66118;SDS011;52912;48.564;9.302;2023-04-25T06:37:24;6.20;;;2.53;;
66118;SDS011;52912;48.564;9.302;2023-04-25T06:39:49;4.32;;;2.50;;
66118;SDS011;52912;48.564;9.302;2023-04-25T06:42:15;6.07;;;3.30;;
66118;SDS011;52912;48.564;9.302;2023-04-25T06:44:41;6.57;;;2.90;;
66118;SDS011;52912;48.564;9.302;2023-04-25T06:47:07;4.32;;;2.25;;
66118;SDS011;52912;48.564;9.302;2023-04-25T06:49:32;4.78;;;2.50;;
66118;SDS011;52912;48.564;9.302;2023-04-25T06:51:58;8.27;;;2.60;;
66118;SDS011;52912;48.564;9.302;2023-04-25T06:54:23;4.85;;;2.65;;
66118;SDS011;52912;48.564;9.302;2023-04-25T06:56:49;6.45;;;2.35;;
66118;SDS011;52912;48.564;9.302;2023-04-25T06:59:14;4.90;;;2.50;;
66118;SDS011;52912;48.564;9.302;2023-04-25T07:01:41;5.20;;;2.35;;
66118;SDS011;52912;48.564;9.302;2023-04-25T07:04:06;4.15;;;2.33;;
66118;SDS011;52912;48.564;9.302;2023-04-25T07:06:32;4.80;;;2.70;;
66118;SDS011;52912;48.564;9.302;2023-04-25T07:08:57;4.80;;;2.80;;
66118;SDS011;52912;48.564;9.302;2023-04-25T07:11:23;4.18;;;2.58;;
66118;SDS011;52912;48.564;9.302;2023-04-25T07:13:48;5.10;;;2.50;;
66118;SDS011;52912;48.564;9.302;2023-04-25T07:16:14;4.10;;;2.35;;
66118;SDS011;52912;48.564;9.302;2023-04-25T07:18:40;13.55;;;3.83;;
66118;SDS011;52912;48.564;9.302;2023-04-25T07:21:06;8.57;;;3.58;;
66118;SDS011;52912;48.564;9.302;2023-04-25T07:23:31;6.40;;;3.30;;
66118;SDS011;52912;48.564;9.302;2023-04-25T07:25:57;4.78;;;3.00;;
66118;SDS011;52912;48.564;9.302;2023-04-25T07:28:22;6.82;;;2.90;;
66118;SDS011;52912;48.564;9.302;2023-04-25T07:30:48;5.35;;;3.10;;
66118;SDS011;52912;48.564;9.302;2023-04-25T07:33:13;6.05;;;3.00;;
66118;SDS011;52912;48.564;9.302;2023-04-25T07:35:40;5.70;;;3.03;;
66118;SDS011;52912;48.564;9.302;2023-04-25T07:38:05;5.78;;;3.35;;
66118;SDS011;52912;48.564;9.302;2023-04-25T07:40:31;7.07;;;2.50;;
66118;SDS011;52912;48.564;9.302;2023-04-25T07:42:56;4.65;;;2.78;;
66118;SDS011;52912;48.564;9.302;2023-04-25T07:45:22;6.07;;;2.80;;
66118;SDS011;52912;48.564;9.302;2023-04-25T07:47:47;6.85;;;2.95;;
66118;SDS011;52912;48.564;9.302;2023-04-25T07:50:13;5.05;;;2.33;;
66118;SDS011;52912;48.564;9.302;2023-04-25T07:52:40;10.70;;;2.65;;
66118;SDS011;52912;48.564;9.302;2023-04-25T07:55:05;5.32;;;2.67;;
66118;SDS011;52912;48.564;9.302;2023-04-25T07:57:31;5.28;;;2.55;;
66118;SDS011;52912;48.564;9.302;2023-04-25T07:59:56;7.93;;;2.53;;
66118;SDS011;52912;48.564;9.302;2023-04-25T08:02:22;5.20;;;2.80;;
66118;SDS011;52912;48.564;9.302;2023-04-25T08:04:47;6.85;;;2.72;;
66118;SDS011;52912;48.564;9.302;2023-04-25T08:07:13;4.32;;;2.33;;
66118;SDS011;52912;48.564;9.302;2023-04-25T08:09:39;5.25;;;2.30;;
66118;SDS011;52912;48.564;9.302;2023-04-25T08:12:05;7.22;;;2.80;;
66118;SDS011;52912;48.564;9.302;2023-04-25T08:14:30;5.50;;;2.70;;
66118;SDS011;52912;48.564;9.302;2023-04-25T08:16:56;6.50;;;2.85;;
66118;SDS011;52912;48.564;9.302;2023-04-25T08:19:21;6.50;;;2.90;;
66118;SDS011;52912;48.564;9.302;2023-04-25T08:21:47;8.45;;;3.47;;
66118;SDS011;52912;48.564;9.302;2023-04-25T08:24:12;6.55;;;3.05;;
66118;SDS011;52912;48.564;9.302;2023-04-25T08:26:39;5.03;;;3.05;;
66118;SDS011;52912;48.564;9.302;2023-04-25T08:29:04;7.43;;;4.32;;
66118;SDS011;52912;48.564;9.302;2023-04-25T08:31:30;3.40;;;2.33;;
66118;SDS011;52912;48.564;9.302;2023-04-25T08:33:55;7.03;;;4.70;;
66118;SDS011;52912;48.564;9.302;2023-04-25T08:36:21;11.30;;;6.65;;
66118;SDS011;52912;48.564;9.302;2023-04-25T08:38:46;6.75;;;4.20;;
66118;SDS011;52912;48.564;9.302;2023-04-25T08:41:12;8.38;;;4.40;;
66118;SDS011;52912;48.564;9.302;2023-04-25T08:43:40;11.25;;;6.18;;
66118;SDS011;52912;48.564;9.302;2023-04-25T08:46:07;14.85;;;6.82;;
66118;SDS011;52912;48.564;9.302;2023-04-25T08:48:33;9.63;;;6.00;;
66118;SDS011;52912;48.564;9.302;2023-04-25T08:50:58;7.97;;;5.53;;
66118;SDS011;52912;48.564;9.302;2023-04-25T08:53:27;10.07;;;6.43;;
66118;SDS011;52912;48.564;9.302;2023-04-25T08:55:55;12.18;;;7.65;;
66118;SDS011;52912;48.564;9.302;2023-04-25T08:58:22;8.32;;;5.63;;
66118;SDS011;52912;48.564;9.302;2023-04-25T09:00:50;12.35;;;8.13;;
66118;SDS011;52912;48.564;9.302;2023-04-25T09:03:16;12.15;;;7.82;;
66118;SDS011;52912;48.564;9.302;2023-04-25T09:05:42;14.38;;;8.73;;
66118;SDS011;52912;48.564;9.302;2023-04-25T09:08:07;8.43;;;5.50;;
66118;SDS011;52912;48.564;9.302;2023-04-25T09:10:33;6.35;;;4.60;;
66118;SDS011;52912;48.564;9.302;2023-04-25T09:13:02;6.15;;;4.40;;
66118;SDS011;52912;48.564;9.302;2023-04-25T09:15:29;4.15;;;3.10;;
66118;SDS011;52912;48.564;9.302;2023-04-25T09:17:56;7.45;;;3.85;;
66118;SDS011;52912;48.564;9.302;2023-04-25T09:20:22;5.05;;;3.58;;
66118;SDS011;52912;48.564;9.302;2023-04-25T09:22:47;4.28;;;3.00;;
66118;SDS011;52912;48.564;9.302;2023-04-25T09:25:13;4.78;;;3.10;;
66118;SDS011;52912;48.564;9.302;2023-04-25T09:27:48;5.32;;;3.22;;
66118;SDS011;52912;48.564;9.302;2023-04-25T09:30:15;5.05;;;3.30;;
66118;SDS011;52912;48.564;9.302;2023-04-25T09:32:41;6.05;;;3.38;;
66118;SDS011;52912;48.564;9.302;2023-04-25T09:35:09;5.55;;;3.30;;
66118;SDS011;52912;48.564;9.302;2023-04-25T09:37:34;6.10;;;3.65;;
66118;SDS011;52912;48.564;9.302;2023-04-25T09:40:00;5.97;;;3.90;;
66118;SDS011;52912;48.564;9.302;2023-04-25T09:42:31;4.82;;;3.45;;
66118;SDS011;52912;48.564;9.302;2023-04-25T09:44:57;5.53;;;3.80;;
66118;SDS011;52912;48.564;9.302;2023-04-25T09:47:25;5.63;;;3.50;;
66118;SDS011;52912;48.564;9.302;2023-04-25T09:49:51;5.90;;;3.60;;
66118;SDS011;52912;48.564;9.302;2023-04-25T09:52:19;6.80;;;4.05;;
66118;SDS011;52912;48.564;9.302;2023-04-25T09:54:46;6.80;;;4.75;;
66118;SDS011;52912;48.564;9.302;2023-04-25T09:57:13;7.35;;;3.90;;
66118;SDS011;52912;48.564;9.302;2023-04-25T09:59:42;5.22;;;3.35;;
66118;SDS011;52912;48.564;9.302;2023-04-25T10:02:09;5.45;;;3.20;;
66118;SDS011;52912;48.564;9.302;2023-04-25T10:04:36;5.10;;;3.70;;
66118;SDS011;52912;48.564;9.302;2023-04-25T10:07:03;5.05;;;3.58;;
66118;SDS011;52912;48.564;9.302;2023-04-25T10:09:32;6.22;;;3.70;;
66118;SDS011;52912;48.564;9.302;2023-04-25T10:11:59;4.68;;;3.22;;
66118;SDS011;52912;48.564;9.302;2023-04-25T10:14:24;5.65;;;2.60;;
66118;SDS011;52912;48.564;9.302;2023-04-25T10:16:50;3.17;;;2.50;;
66118;SDS011;52912;48.564;9.302;2023-04-25T10:19:16;3.17;;;2.40;;
66118;SDS011;52912;48.564;9.302;2023-04-25T10:21:44;3.85;;;3.00;;
66118;SDS011;52912;48.564;9.302;2023-04-25T10:24:14;4.07;;;2.33;;
66118;SDS011;52912;48.564;9.302;2023-04-25T10:26:42;2.92;;;2.10;;
66118;SDS011;52912;48.564;9.302;2023-04-25T10:29:08;6.70;;;3.50;;
66118;SDS011;52912;48.564;9.302;2023-04-25T10:31:37;6.70;;;3.75;;
66118;SDS011;52912;48.564;9.302;2023-04-25T10:34:10;3.75;;;2.80;;
66118;SDS011;52912;48.564;9.302;2023-04-25T10:36:35;3.13;;;2.38;;
66118;SDS011;52912;48.564;9.302;2023-04-25T10:39:03;4.93;;;3.00;;
66118;SDS011;52912;48.564;9.302;2023-04-25T10:41:29;3.92;;;2.80;;
66118;SDS011;52912;48.564;9.302;2023-04-25T10:44:00;6.47;;;3.60;;
66118;SDS011;52912;48.564;9.302;2023-04-25T10:46:25;13.18;;;5.70;;
66118;SDS011;52912;48.564;9.302;2023-04-25T10:48:52;4.38;;;2.55;;
66118;SDS011;52912;48.564;9.302;2023-04-25T10:51:20;6.97;;;3.28;;
66118;SDS011;52912;48.564;9.302;2023-04-25T10:53:47;5.60;;;2.70;;
66118;SDS011;52912;48.564;9.302;2023-04-25T10:56:21;2.35;;;1.55;;
66118;SDS011;52912;48.564;9.302;2023-04-25T10:58:49;1.90;;;1.65;;
66118;SDS011;52912;48.564;9.302;2023-04-25T11:01:24;4.13;;;1.77;;
66118;SDS011;52912;48.564;9.302;2023-04-25T11:03:56;2.92;;;1.70;;
66118;SDS011;52912;48.564;9.302;2023-04-25T11:06:23;7.53;;;3.90;;
66118;SDS011;52912;48.564;9.302;2023-04-25T11:08:54;6.65;;;2.78;;
66118;SDS011;52912;48.564;9.302;2023-04-25T11:11:20;4.18;;;2.38;;
66118;SDS011;52912;48.564;9.302;2023-04-25T11:13:47;2.75;;;2.00;;
66118;SDS011;52912;48.564;9.302;2023-04-25T11:16:13;2.42;;;1.10;;
66118;SDS011;52912;48.564;9.302;2023-04-25T11:18:41;4.15;;;2.80;;
66118;SDS011;52912;48.564;9.302;2023-04-25T11:21:07;4.82;;;2.78;;
66118;SDS011;52912;48.564;9.302;2023-04-25T11:23:33;6.07;;;3.38;;
66118;SDS011;52912;48.564;9.302;2023-04-25T11:25:58;5.07;;;2.90;;
66118;SDS011;52912;48.564;9.302;2023-04-25T11:28:24;5.30;;;2.72;;
66118;SDS011;52912;48.564;9.302;2023-04-25T11:30:49;2.65;;;1.70;;
66118;SDS011;52912;48.564;9.302;2023-04-25T11:33:15;3.17;;;1.92;;
66118;SDS011;52912;48.564;9.302;2023-04-25T11:35:42;2.20;;;1.63;;
66118;SDS011;52912;48.564;9.302;2023-04-25T11:38:07;2.70;;;1.92;;
66118;SDS011;52912;48.564;9.302;2023-04-25T11:40:33;1.40;;;1.30;;
66118;SDS011;52912;48.564;9.302;2023-04-25T11:42:59;1.23;;;1.10;;
66118;SDS011;52912;48.564;9.302;2023-04-25T11:45:25;3.40;;;1.88;;
66118;SDS011;52912;48.564;9.302;2023-04-25T11:47:51;2.63;;;1.80;;
66118;SDS011;52912;48.564;9.302;2023-04-25T11:50:17;1.75;;;1.23;;
66118;SDS011;52912;48.564;9.302;2023-04-25T11:52:46;1.30;;;1.20;;
66118;SDS011;52912;48.564;9.302;2023-04-25T11:55:13;1.38;;;1.27;;
66118;SDS011;52912;48.564;9.302;2023-04-25T11:57:40;4.70;;;1.20;;
66118;SDS011;52912;48.564;9.302;2023-04-25T12:00:07;1.73;;;1.20;;
66118;SDS011;52912;48.564;9.302;2023-04-25T12:02:34;1.83;;;1.33;;
66118;SDS011;52912;48.564;9.302;2023-04-25T12:05:00;1.42;;;1.23;;
66118;SDS011;52912;48.564;9.302;2023-04-25T12:07:27;2.95;;;1.50;;
66118;SDS011;52912;48.564;9.302;2023-04-25T12:09:55;1.80;;;1.30;;
66118;SDS011;52912;48.564;9.302;2023-04-25T12:12:20;3.85;;;1.90;;
66118;SDS011;52912;48.564;9.302;2023-04-25T12:14:46;3.47;;;2.00;;
66118;SDS011;52912;48.564;9.302;2023-04-25T12:17:12;1.88;;;1.38;;
66118;SDS011;52912;48.564;9.302;2023-04-25T12:19:38;2.88;;;1.80;;
66118;SDS011;52912;48.564;9.302;2023-04-25T12:22:08;3.55;;;1.70;;
66118;SDS011;52912;48.564;9.302;2023-04-25T12:24:44;4.57;;;2.00;;
66118;SDS011;52912;48.564;9.302;2023-04-25T12:27:13;3.85;;;1.65;;
66118;SDS011;52912;48.564;9.302;2023-04-25T12:29:39;2.58;;;1.40;;
66118;SDS011;52912;48.564;9.302;2023-04-25T12:32:15;1.92;;;1.33;;
66118;SDS011;52912;48.564;9.302;2023-04-25T12:34:41;3.38;;;1.52;;
66118;SDS011;52912;48.564;9.302;2023-04-25T12:37:06;2.63;;;1.60;;
66118;SDS011;52912;48.564;9.302;2023-04-25T12:39:32;1.33;;;1.17;;
66118;SDS011;52912;48.564;9.302;2023-04-25T12:41:57;1.40;;;1.30;;
66118;SDS011;52912;48.564;9.302;2023-04-25T12:44:24;1.40;;;1.05;;
66118;SDS011;52912;48.564;9.302;2023-04-25T12:46:49;2.05;;;1.65;;
66118;SDS011;52912;48.564;9.302;2023-04-25T12:49:15;1.52;;;1.23;;
66118;SDS011;52912;48.564;9.302;2023-04-25T12:51:40;1.52;;;1.30;;
66118;SDS011;52912;48.564;9.302;2023-04-25T12:54:06;2.20;;;1.13;;
66118;SDS011;52912;48.564;9.302;2023-04-25T12:56:31;1.42;;;1.33;;
66118;SDS011;52912;48.564;9.302;2023-04-25T12:58:57;1.75;;;1.40;;
66118;SDS011;52912;48.564;9.302;2023-04-25T13:01:24;2.22;;;1.77;;
66118;SDS011;52912;48.564;9.302;2023-04-25T13:03:50;3.85;;;1.95;;
66118;SDS011;52912;48.564;9.302;2023-04-25T13:06:16;1.40;;;1.30;;
66118;SDS011;52912;48.564;9.302;2023-04-25T13:08:42;2.70;;;2.00;;
66118;SDS011;52912;48.564;9.302;2023-04-25T13:11:08;2.42;;;1.70;;
66118;SDS011;52912;48.564;9.302;2023-04-25T13:13:34;2.03;;;1.60;;
66118;SDS011;52912;48.564;9.302;2023-04-25T13:15:59;1.55;;;1.42;;
66118;SDS011;52912;48.564;9.302;2023-04-25T13:18:26;1.25;;;1.15;;
66118;SDS011;52912;48.564;9.302;2023-04-25T13:20:52;2.30;;;1.40;;
66118;SDS011;52912;48.564;9.302;2023-04-25T13:23:18;5.20;;;1.50;;
66118;SDS011;52912;48.564;9.302;2023-04-25T13:25:43;1.42;;;1.30;;
66118;SDS011;52912;48.564;9.302;2023-04-25T13:28:09;1.75;;;1.60;;
66118;SDS011;52912;48.564;9.302;2023-04-25T13:30:34;3.17;;;2.00;;
66118;SDS011;52912;48.564;9.302;2023-04-25T13:32:59;3.88;;;1.98;;
66118;SDS011;52912;48.564;9.302;2023-04-25T13:35:26;1.73;;;1.45;;
66118;SDS011;52912;48.564;9.302;2023-04-25T13:37:52;1.77;;;1.65;;
66118;SDS011;52912;48.564;9.302;2023-04-25T13:40:17;1.70;;;1.60;;
66118;SDS011;52912;48.564;9.302;2023-04-25T13:42:43;2.08;;;1.60;;
66118;SDS011;52912;48.564;9.302;2023-04-25T13:45:08;2.67;;;1.90;;
66118;SDS011;52912;48.564;9.302;2023-04-25T13:47:34;1.85;;;1.58;;
66118;SDS011;52912;48.564;9.302;2023-04-25T13:49:59;2.10;;;1.70;;
66118;SDS011;52912;48.564;9.302;2023-04-25T13:52:26;1.95;;;1.67;;
66118;SDS011;52912;48.564;9.302;2023-04-25T13:54:52;3.63;;;1.85;;
66118;SDS011;52912;48.564;9.302;2023-04-25T13:57:17;2.13;;;1.80;;
66118;SDS011;52912;48.564;9.302;2023-04-25T13:59:43;2.00;;;1.80;;
66118;SDS011;52912;48.564;9.302;2023-04-25T14:02:08;2.55;;;1.90;;
66118;SDS011;52912;48.564;9.302;2023-04-25T14:04:34;3.20;;;2.20;;
66118;SDS011;52912;48.564;9.302;2023-04-25T14:07:00;4.53;;;2.17;;
66118;SDS011;52912;48.564;9.302;2023-04-25T14:09:27;4.35;;;2.30;;
66118;SDS011;52912;48.564;9.302;2023-04-25T14:11:52;3.70;;;2.30;;
66118;SDS011;52912;48.564;9.302;2023-04-25T14:14:18;2.72;;;1.88;;
66118;SDS011;52912;48.564;9.302;2023-04-25T14:16:43;2.78;;;2.03;;
66118;SDS011;52912;48.564;9.302;2023-04-25T14:19:09;2.78;;;2.08;;
66118;SDS011;52912;48.564;9.302;2023-04-25T14:21:34;2.63;;;2.05;;
66118;SDS011;52912;48.564;9.302;2023-04-25T14:24:00;2.97;;;2.10;;
66118;SDS011;52912;48.564;9.302;2023-04-25T14:26:26;3.95;;;2.50;;
66118;SDS011;52912;48.564;9.302;2023-04-25T14:28:52;3.83;;;2.50;;
66118;SDS011;52912;48.564;9.302;2023-04-25T14:31:17;2.17;;;1.85;;
66118;SDS011;52912;48.564;9.302;2023-04-25T14:33:43;2.88;;;1.90;;
66118;SDS011;52912;48.564;9.302;2023-04-25T14:36:08;2.88;;;2.20;;
66118;SDS011;52912;48.564;9.302;2023-04-25T14:38:34;5.13;;;2.63;;
66118;SDS011;52912;48.564;9.302;2023-04-25T14:41:00;4.32;;;2.65;;